Station Historical Data
Daily Summary for April 11, 2017 Units:  Both    English   Metric
« Previous Day
Next Day »
Daily Weekly Monthly Yearly Custom
  High: Low: Average:
Temperature: 80.0 °F /  26.7 °C 49.1 °F /  9.5 °C 66.2 °F /  19 °C
Dew Point: 57.8 °F /  14.3 °C 20.5 °F /  -6.4 °C 45.6 °F /  7.6 °C
Humidity: 81% 32% 50%
Wind Speed: 1.0mph /  1.6km/h - 0.1mph /  0.2km/h
Wind Gust: 5.0mph /  8km/h - -
Wind- - SW
Pressure: 30.32 in /  1026.6 hPa 30.16 in /  1021.2 hPa -
Precipitation: 0.00 in /  0 mm    
Historical Graphs
 
 
Tabular Data for April 11, 2017
Time Temperature Dew Point Pressure Wind Wind Speed Wind Gust Humidity Rainfall Rate (Hourly) solar Conditions
00:00 60.3 °F /  15.7 °C 31.8 °F /  -0.1 °C 30.26in /  1024.6hPa Calm     34% 0.00in /  0mm WeatherDisplay:10.37 W/m2 RA
00:15 60.5 °F /  15.8 °C 49.9 °F /  9.9 °C 30.26in /  1024.6hPa Calm     68% 0.00in /  0mm WeatherDisplay:10.37 W/m2 SCT
00:30 60.5 °F /  15.8 °C 49.5 °F /  9.7 °C 30.26in /  1024.6hPa Calm     67% 0.00in /  0mm WeatherDisplay:10.37 W/m2 SCT
00:45 60.6 °F /  15.9 °C 48.4 °F /  9.1 °C 30.25in /  1024.3hPa Calm     64% 0.00in /  0mm WeatherDisplay:10.37 W/m2 SCT
01:00 60.5 °F /  15.8 °C 49.4 °F /  9.7 °C 30.25in /  1024.3hPa Calm     67% 0.00in /  0mm WeatherDisplay:10.37 W/m2 SCT
01:15 59.7 °F /  15.4 °C 49.6 °F /  9.8 °C 30.25in /  1024.3hPa Calm     69% 0.00in /  0mm WeatherDisplay:10.37 W/m2 SCT
01:30 59.1 °F /  15.1 °C 49.4 °F /  9.7 °C 30.25in /  1024.3hPa Calm     70% 0.00in /  0mm WeatherDisplay:10.37 W/m2 SCT
01:45 59.0 °F /  15 °C 50.0 °F /  10 °C 30.25in /  1024.3hPa Calm     72% 0.00in /  0mm WeatherDisplay:10.37 W/m2 SCT
02:00 58.5 °F /  14.7 °C 50.2 °F /  10.1 °C 30.25in /  1024.3hPa Calm     74% 0.00in /  0mm WeatherDisplay:10.37 W/m2 SCT
02:15 58.0 °F /  14.4 °C 50.1 °F /  10.1 °C 30.25in /  1024.3hPa Calm     75% 0.00in /  0mm WeatherDisplay:10.37 W/m2 SCT
02:30 57.4 °F /  14.1 °C 49.9 °F /  9.9 °C 30.25in /  1024.3hPa Calm     76% 0.00in /  0mm WeatherDisplay:10.37 W/m2 SCT
02:45 56.7 °F /  13.7 °C 49.6 °F /  9.8 °C 30.24in /  1023.9hPa Calm     77% 0.00in /  0mm WeatherDisplay:10.37 W/m2 SCT
03:00 56.3 °F /  13.5 °C 49.5 °F /  9.7 °C 30.24in /  1023.9hPa Calm     78% 0.00in /  0mm WeatherDisplay:10.37 W/m2 SCT
03:15 56.0 °F /  13.3 °C 49.6 °F /  9.8 °C 30.24in /  1023.9hPa Calm     79% 0.00in /  0mm WeatherDisplay:10.37 W/m2 SCT
03:30 54.6 °F /  12.6 °C 48.2 °F /  9 °C 30.24in /  1023.9hPa Calm     79% 0.00in /  0mm WeatherDisplay:10.37 W/m2 SCT
03:45 54.3 °F /  12.4 °C 25.0 °F /  -3.9 °C 30.24in /  1023.9hPa Calm     32% 0.00in /  0mm WeatherDisplay:10.37 W/m2 SCT
04:00 52.6 °F /  11.4 °C 23.6 °F /  -4.7 °C 30.23in /  1023.6hPa Calm     32% 0.00in /  0mm WeatherDisplay:10.37 W/m2 SCT
04:15 52.0 °F /  11.1 °C 23.0 °F /  -5 °C 30.16in /  1021.2hPa Calm     32% 0.00in /  0mm WeatherDisplay:10.37 W/m2 SCT
04:30 50.9 °F /  10.5 °C 22.0 °F /  -5.6 °C 30.23in /  1023.6hPa Calm     32% 0.00in /  0mm WeatherDisplay:10.37 W/m2 SCT
04:45 50.7 °F /  10.4 °C 21.9 °F /  -5.6 °C 30.23in /  1023.6hPa Calm     32% 0.00in /  0mm WeatherDisplay:10.37 W/m2 SCT
05:00 50.1 °F /  10.1 °C 21.4 °F /  -5.9 °C 30.23in /  1023.6hPa Calm     32% 0.00in /  0mm WeatherDisplay:10.37 W/m2 SCT
05:15 49.9 °F /  9.9 °C 21.2 °F /  -6 °C 30.23in /  1023.6hPa Calm     32% 0.00in /  0mm WeatherDisplay:10.37 W/m2 SCT
05:30 49.7 °F /  9.8 °C 21.0 °F /  -6.1 °C 30.23in /  1023.6hPa Calm     32% 0.00in /  0mm WeatherDisplay:10.37 W/m2 SCT
05:45 49.5 °F /  9.7 °C 20.8 °F /  -6.2 °C 30.23in /  1023.6hPa Calm     32% 0.00in /  0mm WeatherDisplay:10.37 W/m2 SCT
06:00 49.4 °F /  9.7 °C 20.7 °F /  -6.3 °C 30.23in /  1023.6hPa Calm     32% 0.00in /  0mm WeatherDisplay:10.37 W/m2 SCT
06:15 49.2 °F /  9.6 °C 20.6 °F /  -6.3 °C 30.24in /  1023.9hPa Calm     32% 0.00in /  0mm WeatherDisplay:10.37 W/m2 SCT
06:30 49.2 °F /  9.6 °C 20.5 °F /  -6.4 °C 30.24in /  1023.9hPa Calm     32% 0.00in /  0mm WeatherDisplay:10.37 W/m2 SCT
06:45 49.1 °F /  9.5 °C 20.5 °F /  -6.4 °C 30.24in /  1023.9hPa Calm     32% 0.00in /  0mm WeatherDisplay:10.37 W/m2 SCT
07:00 49.1 °F /  9.5 °C 20.5 °F /  -6.4 °C 30.24in /  1023.9hPa Calm     32% 0.00in /  0mm WeatherDisplay:10.37 W/m2 SCT
07:15 49.1 °F /  9.5 °C 20.5 °F /  -6.4 °C 30.24in /  1023.9hPa Calm     32% 0.00in /  0mm WeatherDisplay:10.37 W/m2 SCT
07:30 49.1 °F /  9.5 °C 20.5 °F /  -6.4 °C 30.25in /  1024.3hPa Calm     32% 0.00in /  0mm WeatherDisplay:10.37 W/m2 SCT
07:45 49.1 °F /  9.5 °C 20.5 °F /  -6.4 °C 30.26in /  1024.6hPa Calm     32% 0.00in /  0mm WeatherDisplay:10.37 W/m2 SCT
08:00 49.1 °F /  9.5 °C 20.5 °F /  -6.4 °C 30.27in /  1024.9hPa Calm     32% 0.00in /  0mm WeatherDisplay:10.37 W/m2 SCT
08:15 57.2 °F /  14 °C 51.5 °F /  10.8 °C 30.28in /  1025.3hPa Calm   1.0mph /  1.6km/h 81% 0.00in /  0mm WeatherDisplay:10.37 W/m2 SCT
08:30 58.5 °F /  14.7 °C 52.0 °F /  11.1 °C 30.28in /  1025.3hPa Calm   1.0mph /  1.6km/h 79% 0.00in /  0mm WeatherDisplay:10.37 W/m2 SCT
08:45 60.2 °F /  15.7 °C 52.3 °F /  11.3 °C 30.29in /  1025.6hPa Calm   1.0mph /  1.6km/h 75% 0.00in /  0mm WeatherDisplay:10.37 W/m2 SCT
09:00 60.8 °F /  16 °C 52.5 °F /  11.4 °C 30.29in /  1025.6hPa Calm   1.0mph /  1.6km/h 74% 0.00in /  0mm WeatherDisplay:10.37 W/m2 SCT
09:15 62.6 °F /  17 °C 53.5 °F /  11.9 °C 30.29in /  1025.6hPa Calm   2.0mph /  3.2km/h 72% 0.00in /  0mm WeatherDisplay:10.37 W/m2 SCT
09:30 63.7 °F /  17.6 °C 54.1 °F /  12.3 °C 30.30in /  1026hPa Calm   1.0mph /  1.6km/h 71% 0.00in /  0mm WeatherDisplay:10.37 W/m2 SCT
09:45 66.3 °F /  19.1 °C 54.6 °F /  12.6 °C 30.30in /  1026hPa Calm   2.0mph /  3.2km/h 66% 0.00in /  0mm WeatherDisplay:10.37 W/m2 SCT
10:00 68.1 °F /  20.1 °C 54.6 °F /  12.6 °C 30.31in /  1026.3hPa NNW 1.0mph /  1.6km/h 2.0mph /  3.2km/h 62% 0.00in /  0mm WeatherDisplay:10.37 W/m2 SCT
10:15 70.3 °F /  21.3 °C 56.6 °F /  13.7 °C 30.31in /  1026.3hPa Calm   2.0mph /  3.2km/h 62% 0.00in /  0mm WeatherDisplay:10.37 W/m2 SCT
10:30 70.5 °F /  21.4 °C 56.4 °F /  13.6 °C 30.31in /  1026.3hPa Calm   2.0mph /  3.2km/h 61% 0.00in /  0mm WeatherDisplay:10.37 W/m2 SCT
10:45 71.6 °F /  22 °C 55.1 °F /  12.8 °C 30.32in /  1026.6hPa South 1.0mph /  1.6km/h 5.0mph /  8km/h 56% 0.00in /  0mm WeatherDisplay:10.37 W/m2 SCT
11:00 73.3 °F /  22.9 °C 56.6 °F /  13.7 °C 30.31in /  1026.3hPa Calm   3.0mph /  4.8km/h 56% 0.00in /  0mm WeatherDisplay:10.37 W/m2 SCT
11:15 74.6 °F /  23.7 °C 57.3 °F /  14.1 °C 30.31in /  1026.3hPa Calm   2.0mph /  3.2km/h 55% 0.00in /  0mm WeatherDisplay:10.37 W/m2 SCT
11:30 75.7 °F /  24.3 °C 57.8 °F /  14.3 °C 30.31in /  1026.3hPa Calm   3.0mph /  4.8km/h 54% 0.00in /  0mm WeatherDisplay:10.37 W/m2 SCT
11:45 76.5 °F /  24.7 °C 57.0 °F /  13.9 °C 30.31in /  1026.3hPa Calm   2.0mph /  3.2km/h 51% 0.00in /  0mm WeatherDisplay:10.37 W/m2 SCT
12:00 77.0 °F /  25 °C 56.4 °F /  13.6 °C 30.30in /  1026hPa SSE 1.0mph /  1.6km/h 5.0mph /  8km/h 49% 0.00in /  0mm WeatherDisplay:10.37 W/m2 SCT
12:15 77.4 °F /  25.2 °C 56.2 °F /  13.4 °C 30.30in /  1026hPa SW 1.0mph /  1.6km/h 5.0mph /  8km/h 48% 0.00in /  0mm WeatherDisplay:10.37 W/m2 SCT
12:30 78.2 °F /  25.7 °C 56.3 °F /  13.5 °C 30.29in /  1025.6hPa Calm   3.0mph /  4.8km/h 47% 0.00in /  0mm WeatherDisplay:10.37 W/m2 SCT
12:45 78.0 °F /  25.6 °C 54.3 °F /  12.4 °C 30.29in /  1025.6hPa SW 1.0mph /  1.6km/h 3.0mph /  4.8km/h 44% 0.00in /  0mm WeatherDisplay:10.37 W/m2 SCT
13:00 77.1 °F /  25.1 °C 54.1 °F /  12.3 °C 30.28in /  1025.3hPa Calm   3.0mph /  4.8km/h 45% 0.00in /  0mm WeatherDisplay:10.37 W/m2 SCT
13:15 77.1 °F /  25.1 °C 52.9 °F /  11.6 °C 30.28in /  1025.3hPa SE 1.0mph /  1.6km/h 3.0mph /  4.8km/h 43% 0.00in /  0mm WeatherDisplay:10.37 W/m2 SCT
13:30 76.3 °F /  24.6 °C 52.8 °F /  11.6 °C 30.27in /  1024.9hPa Calm   3.0mph /  4.8km/h 44% 0.00in /  0mm WeatherDisplay:10.37 W/m2 SCT
13:45 77.9 °F /  25.5 °C 54.2 °F /  12.3 °C 30.26in /  1024.6hPa Calm   5.0mph /  8km/h 44% 0.00in /  0mm WeatherDisplay:10.37 W/m2 SCT
14:15 77.8 °F /  25.4 °C 52.2 °F /  11.2 °C 30.25in /  1024.3hPa South 1.0mph /  1.6km/h 3.0mph /  4.8km/h 41% 0.00in /  0mm WeatherDisplay:10.37 W/m2 SCT
14:30 77.7 °F /  25.4 °C 51.5 °F /  10.8 °C 30.25in /  1024.3hPa Calm   3.0mph /  4.8km/h 40% 0.00in /  0mm WeatherDisplay:10.37 W/m2 SCT
14:45 77.7 °F /  25.4 °C 50.8 °F /  10.4 °C 30.24in /  1023.9hPa Calm   2.0mph /  3.2km/h 39% 0.00in /  0mm WeatherDisplay:10.37 W/m2 SCT
15:00 78.5 °F /  25.8 °C 50.8 °F /  10.4 °C 30.23in /  1023.6hPa Calm   2.0mph /  3.2km/h 38% 0.00in /  0mm WeatherDisplay:10.37 W/m2 SCT
15:15 78.8 °F /  26 °C 50.4 °F /  10.2 °C 30.22in /  1023.2hPa Calm   2.0mph /  3.2km/h 37% 0.00in /  0mm WeatherDisplay:10.37 W/m2 SCT
15:30 79.3 °F /  26.3 °C 51.5 °F /  10.8 °C 30.22in /  1023.2hPa Calm   3.0mph /  4.8km/h 38% 0.00in /  0mm WeatherDisplay:10.37 W/m2 SCT
15:45 80.0 °F /  26.7 °C 51.4 °F /  10.8 °C 30.20in /  1022.6hPa Calm   2.0mph /  3.2km/h 37% 0.00in /  0mm WeatherDisplay:10.37 W/m2 SCT
16:00 78.8 °F /  26 °C 49.6 °F /  9.8 °C 30.20in /  1022.6hPa Calm   2.0mph /  3.2km/h 36% 0.00in /  0mm WeatherDisplay:10.37 W/m2 SCT
16:15 78.8 °F /  26 °C 51.0 °F /  10.6 °C 30.19in /  1022.2hPa Calm   1.0mph /  1.6km/h 38% 0.00in /  0mm WeatherDisplay:10.37 W/m2 SCT
16:30 79.4 °F /  26.3 °C 49.4 °F /  9.7 °C 30.19in /  1022.2hPa Calm   3.0mph /  4.8km/h 35% 0.00in /  0mm WeatherDisplay:10.37 W/m2 SCT
16:45 79.5 °F /  26.4 °C 49.4 °F /  9.7 °C 30.18in /  1021.9hPa Calm   3.0mph /  4.8km/h 35% 0.00in /  0mm WeatherDisplay:10.37 W/m2 SCT
17:00 79.4 °F /  26.3 °C 50.1 °F /  10.1 °C 30.18in /  1021.9hPa Calm   1.0mph /  1.6km/h 36% 0.00in /  0mm WeatherDisplay:10.37 W/m2 SCT
17:15 79.5 °F /  26.4 °C 49.4 °F /  9.7 °C 30.17in /  1021.6hPa WNW 1.0mph /  1.6km/h 2.0mph /  3.2km/h 35% 0.00in /  0mm WeatherDisplay:10.37 W/m2 SCT
17:30 79.6 °F /  26.4 °C 48.7 °F /  9.3 °C 30.17in /  1021.6hPa Calm   1.0mph /  1.6km/h 34% 0.00in /  0mm WeatherDisplay:10.37 W/m2 SCT
17:45 79.8 °F /  26.6 °C 48.1 °F /  8.9 °C 30.17in /  1021.6hPa NW 1.0mph /  1.6km/h 2.0mph /  3.2km/h 33% 0.00in /  0mm WeatherDisplay:10.37 W/m2 CLR
18:00 79.2 °F /  26.2 °C 49.1 °F /  9.5 °C 30.17in /  1021.6hPa Calm   1.0mph /  1.6km/h 35% 0.00in /  0mm WeatherDisplay:10.37 W/m2 CLR
18:15 77.9 °F /  25.5 °C 50.2 °F /  10.1 °C 30.17in /  1021.6hPa Calm   1.0mph /  1.6km/h 38% 0.00in /  0mm WeatherDisplay:10.37 W/m2 CLR
18:30 77.6 °F /  25.3 °C 48.5 °F /  9.2 °C 30.17in /  1021.6hPa Calm     36% 0.00in /  0mm WeatherDisplay:10.37 W/m2 CLR
18:45 77.1 °F /  25.1 °C 48.8 °F /  9.3 °C 30.17in /  1021.6hPa Calm     37% 0.00in /  0mm WeatherDisplay:10.37 W/m2 CLR
19:00 76.5 °F /  24.7 °C 49.0 °F /  9.4 °C 30.17in /  1021.6hPa Calm   1.0mph /  1.6km/h 38% 0.00in /  0mm WeatherDisplay:10.37 W/m2 CLR
19:15 75.8 °F /  24.3 °C 49.7 °F /  9.8 °C 30.17in /  1021.6hPa Calm     40% 0.00in /  0mm WeatherDisplay:10.37 W/m2 CLR
19:30 74.8 °F /  23.8 °C 50.8 °F /  10.4 °C 30.17in /  1021.6hPa Calm     43% 0.00in /  0mm WeatherDisplay:10.37 W/m2 CLR
19:45 73.7 °F /  23.2 °C 49.8 °F /  9.9 °C 30.17in /  1021.6hPa Calm     43% 0.00in /  0mm WeatherDisplay:10.37 W/m2 CLR
20:00 72.8 °F /  22.7 °C 49.6 °F /  9.8 °C 30.18in /  1021.9hPa Calm     44% 0.00in /  0mm WeatherDisplay:10.37 W/m2 CLR
20:15 72.0 °F /  22.2 °C 50.6 °F /  10.3 °C 30.18in /  1021.9hPa Calm     47% 0.00in /  0mm WeatherDisplay:10.37 W/m2 CLR
20:30 71.1 °F /  21.7 °C 50.4 °F /  10.2 °C 30.19in /  1022.2hPa Calm     48% 0.00in /  0mm WeatherDisplay:10.37 W/m2 CLR
20:45 70.4 °F /  21.3 °C 50.8 °F /  10.4 °C 30.19in /  1022.2hPa Calm     50% 0.00in /  0mm WeatherDisplay:10.37 W/m2 CLR
21:00 69.5 °F /  20.8 °C 51.1 °F /  10.6 °C 30.19in /  1022.2hPa Calm     52% 0.00in /  0mm WeatherDisplay:10.37 W/m2 CLR
21:15 68.4 °F /  20.2 °C 51.1 °F /  10.6 °C 30.20in /  1022.6hPa Calm     54% 0.00in /  0mm WeatherDisplay:10.37 W/m2 CLR
21:30 67.9 °F /  19.9 °C 51.1 °F /  10.6 °C 30.20in /  1022.6hPa Calm     55% 0.00in /  0mm WeatherDisplay:10.37 W/m2 CLR
21:45 66.9 °F /  19.4 °C 52.1 °F /  11.2 °C 30.21in /  1022.9hPa Calm     59% 0.00in /  0mm WeatherDisplay:10.37 W/m2 CLR
22:00 65.9 °F /  18.8 °C 52.0 °F /  11.1 °C 30.22in /  1023.2hPa Calm     61% 0.00in /  0mm WeatherDisplay:10.37 W/m2 CLR
22:15 65.1 °F /  18.4 °C 52.2 °F /  11.2 °C 30.22in /  1023.2hPa Calm     63% 0.00in /  0mm WeatherDisplay:10.37 W/m2 CLR
22:30 64.8 °F /  18.2 °C 53.2 °F /  11.8 °C 30.22in /  1023.2hPa Calm     66% 0.00in /  0mm WeatherDisplay:10.37 W/m2 CLR
22:45 65.0 °F /  18.3 °C 52.1 °F /  11.2 °C 30.22in /  1023.2hPa Calm     63% 0.00in /  0mm WeatherDisplay:10.37 W/m2 CLR
23:00 65.0 °F /  18.3 °C 51.7 °F /  10.9 °C 30.22in /  1023.2hPa Calm     62% 0.00in /  0mm WeatherDisplay:10.37 W/m2 CLR
23:30 65.0 °F /  18.3 °C 51.7 °F /  10.9 °C 30.23in /  1023.6hPa Calm     62% 0.00in /  0mm WeatherDisplay:10.37 W/m2 CLR
23:45 64.9 °F /  18.3 °C 51.6 °F /  10.9 °C 30.22in /  1023.2hPa Calm     62% 0.00in /  0mm WeatherDisplay:10.37 W/m2 CLR
Piedmont Bend
Compliments of Weather Underground - 4 mb